createdAt,value
2019-01-28T00:01:50.592Z,2.67
2019-01-28T00:04:19.138Z,2.70
2019-01-28T00:06:47.965Z,2.80
2019-01-28T00:09:16.737Z,2.90
2019-01-28T00:11:45.285Z,2.53
2019-01-28T00:14:13.842Z,2.90
2019-01-28T00:16:42.370Z,2.67
2019-01-28T00:19:10.931Z,2.87
2019-01-28T00:21:39.501Z,2.50
2019-01-28T00:24:08.090Z,2.47
2019-01-28T00:26:36.642Z,3.20
2019-01-28T00:29:05.247Z,2.30
2019-01-28T00:31:33.801Z,2.80
2019-01-28T00:34:02.338Z,2.93
2019-01-28T00:36:30.898Z,2.63
2019-01-28T00:38:59.481Z,3.10
2019-01-28T00:41:28.035Z,3.17
2019-01-28T00:43:56.680Z,3.10
2019-01-28T00:46:25.246Z,3.30
2019-01-28T00:48:53.782Z,3.20
2019-01-28T00:51:22.338Z,3.13
2019-01-28T00:53:50.890Z,3.50
2019-01-28T00:56:19.454Z,3.20
2019-01-28T00:58:48.025Z,3.30
2019-01-28T01:01:16.650Z,3.40
2019-01-28T01:03:45.205Z,3.30
2019-01-28T01:06:13.870Z,3.13
2019-01-28T01:08:42.413Z,3.43
2019-01-28T01:11:11.002Z,3.77
2019-01-28T01:13:39.537Z,3.67
2019-01-28T01:16:08.097Z,3.70
2019-01-28T01:18:38.482Z,3.60
2019-01-28T01:21:07.009Z,3.93
2019-01-28T01:23:35.567Z,3.60
2019-01-28T01:26:04.206Z,3.87
2019-01-28T01:28:32.789Z,3.47
2019-01-28T01:31:01.349Z,3.93
2019-01-28T01:33:29.914Z,3.30
2019-01-28T01:35:58.486Z,3.90
2019-01-28T01:38:27.030Z,3.77
2019-01-28T01:40:55.637Z,4.23
2019-01-28T01:43:24.239Z,3.90
2019-01-28T01:45:52.793Z,3.60
2019-01-28T01:48:21.365Z,3.87
2019-01-28T01:50:49.917Z,3.90
2019-01-28T01:53:18.495Z,3.90
2019-01-28T01:55:47.110Z,3.60
2019-01-28T01:58:15.661Z,3.77
2019-01-28T02:00:44.490Z,4.07
2019-01-28T02:03:13.031Z,3.50
2019-01-28T02:05:41.569Z,4.23
2019-01-28T02:08:10.138Z,3.90
2019-01-28T02:10:38.697Z,4.30
2019-01-28T02:13:07.317Z,4.10
2019-01-28T02:15:35.866Z,4.13
2019-01-28T02:18:04.977Z,4.17
2019-01-28T02:20:33.555Z,4.90
2019-01-28T02:23:02.134Z,4.47
2019-01-28T02:25:30.709Z,4.40
2019-01-28T02:27:59.316Z,4.93
2019-01-28T02:30:27.942Z,4.83
2019-01-28T02:32:56.479Z,4.57
2019-01-28T02:35:25.013Z,4.80
2019-01-28T02:37:53.600Z,4.40
2019-01-28T02:40:22.133Z,5.00
2019-01-28T02:42:50.699Z,4.73
2019-01-28T02:45:19.322Z,5.07
2019-01-28T02:47:47.893Z,4.73
2019-01-28T02:50:17.205Z,4.87
2019-01-28T02:52:45.879Z,5.50
2019-01-28T02:55:14.908Z,4.63
2019-01-28T02:57:43.518Z,4.57
2019-01-28T03:00:13.965Z,5.20
2019-01-28T03:02:42.543Z,4.40
2019-01-28T03:05:11.179Z,4.83
2019-01-28T03:07:39.729Z,4.83
2019-01-28T03:10:10.177Z,4.30
2019-01-28T03:12:38.752Z,4.43
2019-01-28T03:15:07.432Z,4.20
2019-01-28T03:17:36.033Z,3.70
2019-01-28T03:20:05.619Z,3.70
2019-01-28T03:22:34.274Z,3.70
2019-01-28T03:25:03.038Z,3.10
2019-01-28T03:27:31.586Z,3.17
2019-01-28T03:30:00.417Z,2.87
2019-01-28T03:32:29.111Z,3.40
2019-01-28T03:34:57.675Z,3.00
2019-01-28T03:37:26.307Z,2.60
2019-01-28T03:39:54.885Z,2.60
2019-01-28T03:42:23.434Z,2.60
2019-01-28T03:44:52.013Z,2.97
2019-01-28T03:47:20.533Z,2.80
2019-01-28T03:49:49.111Z,2.67
2019-01-28T03:52:17.914Z,2.33
2019-01-28T03:54:46.453Z,2.60
2019-01-28T03:57:15.106Z,2.67
2019-01-28T03:59:43.645Z,3.00
2019-01-28T04:02:12.207Z,2.43
2019-01-28T04:04:40.778Z,2.43
2019-01-28T04:07:10.043Z,2.10
2019-01-28T04:09:38.733Z,1.67
2019-01-28T04:12:07.302Z,2.03
2019-01-28T04:14:36.263Z,2.20
2019-01-28T04:17:04.810Z,2.30
2019-01-28T04:19:33.353Z,1.37
2019-01-28T04:22:01.989Z,1.80
2019-01-28T04:24:30.521Z,1.83
2019-01-28T04:26:59.161Z,1.47
2019-01-28T04:29:28.041Z,1.80
2019-01-28T04:31:56.583Z,1.53
2019-01-28T04:34:25.150Z,1.40
2019-01-28T04:36:55.012Z,1.47
2019-01-28T04:39:23.608Z,1.60
2019-01-28T04:41:52.178Z,1.40
2019-01-28T04:44:20.795Z,1.37
2019-01-28T04:46:49.345Z,1.50
2019-01-28T04:49:17.903Z,1.70
2019-01-28T04:51:46.479Z,1.40
2019-01-28T04:54:15.063Z,1.97
2019-01-28T04:56:43.624Z,1.80
2019-01-28T04:59:12.169Z,1.70
2019-01-28T05:01:40.722Z,2.23
2019-01-28T05:04:09.266Z,2.20
2019-01-28T05:06:37.873Z,2.23
2019-01-28T05:09:08.177Z,2.00
2019-01-28T05:11:36.718Z,2.37
2019-01-28T05:14:05.305Z,3.10
2019-01-28T05:16:33.867Z,2.60
2019-01-28T05:19:02.417Z,2.70
2019-01-28T05:21:30.982Z,2.17
2019-01-28T05:23:59.867Z,2.67
2019-01-28T05:26:28.419Z,2.47
2019-01-28T05:28:57.035Z,3.53
2019-01-28T05:31:25.603Z,3.10
2019-01-28T05:33:54.161Z,3.00
2019-01-28T05:36:22.756Z,2.63
2019-01-28T05:38:51.344Z,2.90
2019-01-28T05:41:19.918Z,2.67
2019-01-28T05:43:48.568Z,2.83
2019-01-28T05:46:17.108Z,3.10
2019-01-28T05:48:45.691Z,3.90
2019-01-28T05:51:14.588Z,6.67
2019-01-28T05:53:43.201Z,4.03
2019-01-28T05:56:11.738Z,3.20
2019-01-28T05:58:40.325Z,3.13
2019-01-28T06:01:08.944Z,3.70
2019-01-28T06:03:37.486Z,3.67
2019-01-28T06:06:06.045Z,4.20
2019-01-28T06:08:34.627Z,3.57
2019-01-28T06:11:03.256Z,4.30
2019-01-28T06:13:31.798Z,4.13
2019-01-28T06:16:00.446Z,4.17
2019-01-28T06:18:29.077Z,3.20
2019-01-28T06:20:59.126Z,3.70
2019-01-28T06:23:27.861Z,3.67
2019-01-28T06:25:56.481Z,3.57
2019-01-28T06:28:25.062Z,3.63
2019-01-28T06:30:54.014Z,3.57
2019-01-28T06:33:22.600Z,3.70
2019-01-28T06:35:51.188Z,4.27
2019-01-28T06:38:19.754Z,3.40
2019-01-28T06:40:48.289Z,3.77
2019-01-28T06:43:16.853Z,3.40
2019-01-28T06:45:45.462Z,3.90
2019-01-28T06:48:14.022Z,3.80
2019-01-28T06:50:42.583Z,3.47
2019-01-28T06:53:11.131Z,3.90
2019-01-28T06:55:39.701Z,3.80
2019-01-28T06:58:08.469Z,3.50
2019-01-28T07:00:37.107Z,4.23
2019-01-28T07:03:06.837Z,3.77
2019-01-28T07:05:35.383Z,4.20
2019-01-28T07:08:04.044Z,4.30
2019-01-28T07:10:32.633Z,4.90
2019-01-28T07:13:01.250Z,4.43
2019-01-28T07:15:29.815Z,3.80
2019-01-28T07:17:58.473Z,4.30
2019-01-28T07:20:30.009Z,4.70
2019-01-28T07:22:58.778Z,4.60
2019-01-28T07:25:27.408Z,4.87
2019-01-28T07:27:56.126Z,4.97
2019-01-28T07:30:25.705Z,4.97
2019-01-28T07:32:54.385Z,5.60
2019-01-28T07:35:23.064Z,4.70
2019-01-28T07:37:51.602Z,4.63
2019-01-28T07:40:20.142Z,4.77
2019-01-28T07:42:48.717Z,4.63
2019-01-28T07:45:19.897Z,5.20
2019-01-28T07:47:48.478Z,4.87
2019-01-28T07:50:17.025Z,5.40
2019-01-28T07:52:45.650Z,5.23
2019-01-28T07:55:15.253Z,5.20
2019-01-28T07:57:43.906Z,4.87
2019-01-28T08:00:14.357Z,5.83
2019-01-28T08:02:42.934Z,5.07
2019-01-28T08:05:11.901Z,4.87
2019-01-28T08:07:40.485Z,4.90
2019-01-28T08:10:09.830Z,5.40
2019-01-28T08:12:38.426Z,5.17
2019-01-28T08:15:07.501Z,5.07
2019-01-28T08:17:36.056Z,5.10
2019-01-28T08:20:11.467Z,5.27
2019-01-28T08:22:35.937Z,5.00
2019-01-28T08:25:04.869Z,6.13
2019-01-28T08:27:35.120Z,5.03
2019-01-28T08:30:04.973Z,5.57
2019-01-28T08:32:33.629Z,5.17
2019-01-28T08:35:02.221Z,5.57
2019-01-28T08:37:30.783Z,5.50
2019-01-28T08:39:59.346Z,4.80
2019-01-28T08:42:27.930Z,5.27
2019-01-28T08:44:56.454Z,4.60
2019-01-28T08:47:24.990Z,5.97
2019-01-28T08:49:53.588Z,5.77
2019-01-28T08:52:22.113Z,5.93
2019-01-28T08:54:50.736Z,6.47
2019-01-28T08:57:19.511Z,6.00
2019-01-28T08:59:48.073Z,7.27
2019-01-28T09:02:16.641Z,5.77
2019-01-28T09:04:45.191Z,5.10
2019-01-28T09:07:13.846Z,5.03
2019-01-28T09:09:42.417Z,4.90
2019-01-28T09:12:11.098Z,6.00
2019-01-28T09:14:39.662Z,5.37
2019-01-28T09:17:08.329Z,5.60
2019-01-28T09:19:36.891Z,5.27
2019-01-28T09:22:05.540Z,4.97
2019-01-28T09:24:34.090Z,4.93
2019-01-28T09:27:02.637Z,5.77
2019-01-28T09:29:31.562Z,5.60
2019-01-28T09:32:00.231Z,6.20
2019-01-28T09:34:28.827Z,4.87
2019-01-28T09:36:57.405Z,5.50
2019-01-28T09:39:25.979Z,5.67
2019-01-28T09:41:56.238Z,4.70
2019-01-28T09:44:24.807Z,5.00
2019-01-28T09:46:53.386Z,4.83
2019-01-28T09:49:21.930Z,4.93
2019-01-28T09:51:50.486Z,5.23
2019-01-28T09:54:19.083Z,5.40
2019-01-28T09:56:47.637Z,4.90
2019-01-28T09:59:16.181Z,5.00
2019-01-28T10:01:44.789Z,4.37
2019-01-28T10:04:13.353Z,4.63
2019-01-28T10:06:41.991Z,4.17
2019-01-28T10:09:10.646Z,4.87
2019-01-28T10:11:39.270Z,4.53
2019-01-28T10:14:07.829Z,4.53
2019-01-28T10:16:36.410Z,4.43
2019-01-28T10:19:04.946Z,4.23
2019-01-28T10:21:33.573Z,4.33
2019-01-28T10:24:02.118Z,4.20
2019-01-28T10:26:30.667Z,4.73
2019-01-28T10:28:59.269Z,5.03
2019-01-28T10:31:27.937Z,4.10
2019-01-28T10:33:56.809Z,4.33
2019-01-28T10:36:25.355Z,4.07
2019-01-28T10:38:53.940Z,4.30
2019-01-28T10:41:22.518Z,3.43
2019-01-28T10:43:51.102Z,4.00
2019-01-28T10:46:19.747Z,4.13
2019-01-28T10:48:50.768Z,4.33
2019-01-28T10:51:19.322Z,3.90
2019-01-28T10:53:47.882Z,3.70
2019-01-28T10:56:16.493Z,3.57
2019-01-28T10:58:45.058Z,4.87
2019-01-28T11:01:13.610Z,4.10
2019-01-28T11:03:42.203Z,3.60
2019-01-28T11:06:10.752Z,3.70
2019-01-28T11:08:39.351Z,3.70
2019-01-28T11:11:08.019Z,3.83
2019-01-28T11:13:36.665Z,3.50
2019-01-28T11:16:05.239Z,3.50
2019-01-28T11:18:33.888Z,3.80
2019-01-28T11:21:02.576Z,3.40
2019-01-28T11:23:32.270Z,3.57
2019-01-28T11:26:01.151Z,3.37
2019-01-28T11:28:30.174Z,3.37
2019-01-28T11:31:02.063Z,3.83
2019-01-28T11:33:30.608Z,3.30
2019-01-28T11:36:05.040Z,3.70
2019-01-28T11:38:29.489Z,3.37
2019-01-28T11:40:58.150Z,3.27
2019-01-28T11:43:32.688Z,3.67
2019-01-28T11:46:02.003Z,3.20
2019-01-28T11:48:32.674Z,3.43
2019-01-28T11:51:00.993Z,3.43
2019-01-28T11:53:29.659Z,2.70
2019-01-28T11:55:58.397Z,3.10
2019-01-28T11:58:26.967Z,3.07
2019-01-28T12:01:03.587Z,3.40
2019-01-28T12:03:32.151Z,3.57
2019-01-28T12:06:01.089Z,3.00
2019-01-28T12:08:29.738Z,3.90
2019-01-28T12:10:58.297Z,4.07
2019-01-28T12:13:26.887Z,3.80
2019-01-28T12:15:55.434Z,3.37
2019-01-28T12:18:23.999Z,2.70
2019-01-28T12:20:53.746Z,3.23
2019-01-28T12:23:22.718Z,3.07
2019-01-28T12:25:51.300Z,3.13
2019-01-28T12:28:19.930Z,2.33
2019-01-28T12:30:48.549Z,3.80
2019-01-28T12:33:17.133Z,2.83
2019-01-28T12:35:46.046Z,3.20
2019-01-28T12:38:14.649Z,3.20
2019-01-28T12:40:43.213Z,2.40
2019-01-28T12:43:11.785Z,3.00
2019-01-28T12:45:40.335Z,2.70
2019-01-28T12:48:09.055Z,2.60
2019-01-28T12:50:37.652Z,2.33
2019-01-28T12:53:06.245Z,2.90
2019-01-28T12:55:34.809Z,2.87
2019-01-28T12:58:03.440Z,2.43
2019-01-28T13:00:37.488Z,3.03
2019-01-28T13:03:06.782Z,2.53
2019-01-28T13:05:35.412Z,3.30
2019-01-28T13:08:04.333Z,4.10
2019-01-28T13:10:33.201Z,2.60
2019-01-28T13:13:01.831Z,2.90
2019-01-28T13:15:31.868Z,3.93
2019-01-28T13:18:00.421Z,2.50
2019-01-28T13:20:29.122Z,3.70
2019-01-28T13:22:57.714Z,4.73
2019-01-28T13:25:26.905Z,3.07
2019-01-28T13:27:55.565Z,4.17
2019-01-28T13:30:25.238Z,2.87
2019-01-28T13:32:54.228Z,2.77
2019-01-28T13:35:22.823Z,2.40
2019-01-28T13:37:51.406Z,2.57
2019-01-28T13:40:20.007Z,2.40
2019-01-28T13:42:48.559Z,2.70
2019-01-28T13:45:17.746Z,2.50
2019-01-28T13:47:46.566Z,2.83
2019-01-28T13:50:16.932Z,3.83
2019-01-28T13:52:45.706Z,2.43
2019-01-28T13:55:14.435Z,3.00
2019-01-28T13:57:43.037Z,3.00
2019-01-28T14:00:16.409Z,3.80
2019-01-28T14:02:45.057Z,2.77
2019-01-28T14:05:13.706Z,2.73
2019-01-28T14:07:43.179Z,4.20
2019-01-28T14:10:12.303Z,3.93
2019-01-28T14:12:40.847Z,3.30
2019-01-28T14:15:11.839Z,2.13
2019-01-28T14:17:40.439Z,3.33
2019-01-28T14:20:11.103Z,4.87
2019-01-28T14:22:39.645Z,3.80
2019-01-28T14:25:08.889Z,4.07
2019-01-28T14:27:37.771Z,5.63
2019-01-28T14:30:07.501Z,5.10
2019-01-28T14:32:36.109Z,9.37
2019-01-28T14:35:04.998Z,5.40
2019-01-28T14:37:33.574Z,4.70
2019-01-28T14:40:02.502Z,4.50
2019-01-28T14:42:31.164Z,4.40
2019-01-28T14:44:59.730Z,5.13
2019-01-28T14:47:28.293Z,4.30
2019-01-28T14:49:56.885Z,3.73
2019-01-28T14:52:25.495Z,2.70
2019-01-28T14:54:54.133Z,3.37
2019-01-28T14:57:23.041Z,2.70
2019-01-28T14:59:51.654Z,2.73
2019-01-28T15:02:20.380Z,2.60
2019-01-28T15:04:49.081Z,2.80
2019-01-28T15:07:17.626Z,1.80
2019-01-28T15:09:46.186Z,2.33
2019-01-28T15:12:15.169Z,2.57
2019-01-28T15:14:43.762Z,2.27
2019-01-28T15:17:12.326Z,2.53
2019-01-28T15:19:40.953Z,3.87
2019-01-28T15:22:09.532Z,2.77
2019-01-28T15:24:38.100Z,2.30
2019-01-28T15:27:06.646Z,2.80
2019-01-28T15:29:35.257Z,2.20
2019-01-28T15:32:03.821Z,3.00
2019-01-28T15:34:32.395Z,2.63
2019-01-28T15:37:01.149Z,2.37
2019-01-28T15:39:29.824Z,1.47
2019-01-28T15:41:58.461Z,2.17
2019-01-28T15:44:27.122Z,2.07
2019-01-28T15:46:55.719Z,2.60
2019-01-28T15:49:24.344Z,1.83
2019-01-28T15:51:53.046Z,2.20
2019-01-28T15:54:21.635Z,2.87
2019-01-28T15:56:50.242Z,2.20
2019-01-28T15:59:18.876Z,1.30
2019-01-28T16:01:47.422Z,1.60
2019-01-28T16:04:15.984Z,1.67
2019-01-28T16:06:44.566Z,1.30
2019-01-28T16:09:13.093Z,1.90
2019-01-28T16:11:41.944Z,1.87
2019-01-28T16:14:10.495Z,1.60
2019-01-28T16:16:39.038Z,1.70
2019-01-28T16:19:07.603Z,1.63
2019-01-28T16:21:36.146Z,1.50
2019-01-28T16:24:05.433Z,1.70
2019-01-28T16:26:34.114Z,1.40
2019-01-28T16:29:02.665Z,1.97
2019-01-28T16:31:31.565Z,1.63
2019-01-28T16:34:00.125Z,2.23
2019-01-28T16:36:28.696Z,1.80
2019-01-28T16:38:57.262Z,1.90
2019-01-28T16:41:25.888Z,1.60
2019-01-28T16:43:54.473Z,2.10
2019-01-28T16:46:23.034Z,1.73
2019-01-28T16:48:51.577Z,2.63
2019-01-28T16:51:20.114Z,2.00
2019-01-28T16:53:48.693Z,1.80
2019-01-28T16:56:17.258Z,2.10
2019-01-28T16:58:45.805Z,2.70
2019-01-28T17:01:14.440Z,2.40
2019-01-28T17:03:42.971Z,2.50
2019-01-28T17:06:11.905Z,2.10
2019-01-28T17:08:40.453Z,2.10
2019-01-28T17:11:09.094Z,2.30
2019-01-28T17:13:37.646Z,2.40
2019-01-28T17:16:06.217Z,2.30
2019-01-28T17:18:34.779Z,2.40
2019-01-28T17:21:03.381Z,3.00
2019-01-28T17:23:31.933Z,2.47
2019-01-28T17:26:00.506Z,2.57
2019-01-28T17:28:29.137Z,2.87
2019-01-28T17:30:57.757Z,2.57
2019-01-28T17:33:26.337Z,2.80
2019-01-28T17:35:54.929Z,2.60
2019-01-28T17:38:23.602Z,2.90
2019-01-28T17:40:52.318Z,3.70
2019-01-28T17:43:21.474Z,4.73
2019-01-28T17:45:50.325Z,5.17
2019-01-28T17:48:18.938Z,4.20
2019-01-28T17:50:47.504Z,5.37
2019-01-28T17:53:16.044Z,5.50
2019-01-28T17:55:44.647Z,5.10
2019-01-28T17:58:13.313Z,6.57
2019-01-28T18:00:48.224Z,4.80
2019-01-28T18:03:16.897Z,9.03
2019-01-28T18:05:45.486Z,8.03
2019-01-28T18:08:14.063Z,5.23
2019-01-28T18:10:42.609Z,7.97
2019-01-28T18:13:11.213Z,6.60
2019-01-28T18:15:39.835Z,5.37
2019-01-28T18:18:08.445Z,4.33
2019-01-28T18:20:37.439Z,3.90
2019-01-28T18:23:06.402Z,4.00
2019-01-28T18:25:35.032Z,3.70
2019-01-28T18:28:03.961Z,4.23
2019-01-28T18:30:52.221Z,3.60
2019-01-28T18:33:20.863Z,3.50
2019-01-28T18:35:49.435Z,3.73
2019-01-28T18:38:17.970Z,3.83
2019-01-28T18:40:46.522Z,3.83
2019-01-28T18:43:15.086Z,4.13
2019-01-28T18:45:43.666Z,3.67
2019-01-28T18:48:12.223Z,4.00
2019-01-28T18:50:40.786Z,4.50
2019-01-28T18:53:09.361Z,4.47
2019-01-28T18:55:37.930Z,5.03
2019-01-28T18:58:06.509Z,5.00
2019-01-28T19:00:35.355Z,4.57
2019-01-28T19:03:04.514Z,4.30
2019-01-28T19:05:58.603Z,5.70
2019-01-28T19:08:49.155Z,4.53
2019-01-28T19:11:36.186Z,5.80
2019-01-28T19:14:22.672Z,5.20
2019-01-28T19:17:19.481Z,4.47
2019-01-28T19:20:09.879Z,4.30
2019-01-28T19:22:39.529Z,4.17
2019-01-28T19:25:08.749Z,4.37
2019-01-28T19:27:37.313Z,4.17
2019-01-28T19:30:07.841Z,4.73
2019-01-28T19:32:36.404Z,4.77
2019-01-28T19:35:05.156Z,4.60
2019-01-28T19:37:33.705Z,4.30
2019-01-28T19:40:02.267Z,5.17
2019-01-28T19:42:30.822Z,4.83
2019-01-28T19:44:59.413Z,4.43
2019-01-28T19:47:28.011Z,4.57
2019-01-28T19:49:56.614Z,4.53
2019-01-28T19:52:25.182Z,4.40
2019-01-28T19:54:53.750Z,4.50
2019-01-28T19:57:22.317Z,4.30
2019-01-28T19:59:50.890Z,4.17
2019-01-28T20:02:19.470Z,3.70
2019-01-28T20:04:48.041Z,4.20
2019-01-28T20:07:18.010Z,3.97
2019-01-28T20:09:46.569Z,4.47
2019-01-28T20:12:15.102Z,4.80
2019-01-28T20:14:43.673Z,4.83
2019-01-28T20:17:12.221Z,4.73
2019-01-28T20:19:40.798Z,4.10
2019-01-28T20:22:09.396Z,4.80
2019-01-28T20:24:37.980Z,5.50
2019-01-28T20:27:06.549Z,5.03
2019-01-28T20:29:35.105Z,5.40
2019-01-28T20:32:03.771Z,5.60
2019-01-28T20:34:32.331Z,5.80
2019-01-28T20:37:00.869Z,6.10
2019-01-28T20:39:29.694Z,5.80
2019-01-28T20:41:58.253Z,6.30
2019-01-28T20:44:26.853Z,6.30
2019-01-28T20:46:56.313Z,5.63
2019-01-28T20:49:24.944Z,6.50
2019-01-28T20:51:53.599Z,6.80
2019-01-28T20:54:22.178Z,6.30
2019-01-28T20:56:50.808Z,6.33
2019-01-28T20:59:19.446Z,6.53
2019-01-28T21:01:48.044Z,7.37
2019-01-28T21:04:16.839Z,7.07
2019-01-28T21:06:45.460Z,7.33
2019-01-28T21:09:14.015Z,6.67
2019-01-28T21:11:42.668Z,6.80
2019-01-28T21:14:11.332Z,7.93
2019-01-28T21:16:39.902Z,7.60
2019-01-28T21:19:08.444Z,7.20
2019-01-28T21:21:41.959Z,7.53
2019-01-28T21:24:07.309Z,6.63
2019-01-28T21:26:36.157Z,7.53
2019-01-28T21:29:04.705Z,7.03
2019-01-28T21:31:33.246Z,7.67
2019-01-28T21:34:01.816Z,6.37
2019-01-28T21:36:55.464Z,7.27
2019-01-28T21:39:24.094Z,8.17
2019-01-28T21:41:52.685Z,8.03
2019-01-28T21:44:21.253Z,7.80
2019-01-28T21:46:49.894Z,7.83
2019-01-28T21:49:18.529Z,6.67
2019-01-28T21:51:50.646Z,7.43
2019-01-28T21:54:17.326Z,7.37
2019-01-28T21:56:46.256Z,7.60
2019-01-28T21:59:14.857Z,7.57
2019-01-28T22:01:43.788Z,8.03
2019-01-28T22:04:12.329Z,8.00
2019-01-28T22:06:40.979Z,7.33
2019-01-28T22:09:11.761Z,8.43
2019-01-28T22:11:40.303Z,8.10
2019-01-28T22:14:08.882Z,8.00
2019-01-28T22:16:37.442Z,7.40
2019-01-28T22:19:06.007Z,7.70
2019-01-28T22:21:34.599Z,8.30
2019-01-28T22:24:03.192Z,7.67
2019-01-28T22:26:31.758Z,7.90
2019-01-28T22:29:00.301Z,7.80
2019-01-28T22:31:28.869Z,8.27
2019-01-28T22:33:57.421Z,7.63
2019-01-28T22:36:25.969Z,8.13
2019-01-28T22:38:54.554Z,7.07
2019-01-28T22:41:23.122Z,8.60
2019-01-28T22:43:51.713Z,8.07
2019-01-28T22:46:20.261Z,8.60
2019-01-28T22:48:48.860Z,8.33
2019-01-28T22:51:17.407Z,8.07
2019-01-28T22:53:45.996Z,7.40
2019-01-28T22:56:14.577Z,8.10
2019-01-28T22:58:43.206Z,7.83
2019-01-28T23:01:20.534Z,7.50
2019-01-28T23:03:49.122Z,7.43
2019-01-28T23:06:17.690Z,7.93
2019-01-28T23:08:46.238Z,7.23
2019-01-28T23:11:14.826Z,7.57
2019-01-28T23:13:43.445Z,7.73
2019-01-28T23:16:11.983Z,7.40
2019-01-28T23:18:40.557Z,8.17
2019-01-28T23:21:09.105Z,8.03
2019-01-28T23:23:38.763Z,8.40
2019-01-28T23:26:07.321Z,9.17
2019-01-28T23:28:35.885Z,7.73
2019-01-28T23:31:04.965Z,7.87
2019-01-28T23:33:33.513Z,7.37
2019-01-28T23:36:02.080Z,7.10
2019-01-28T23:38:30.673Z,7.57
2019-01-28T23:40:59.265Z,6.53
2019-01-28T23:43:27.811Z,7.17
2019-01-28T23:45:56.341Z,7.27
2019-01-28T23:48:26.557Z,6.70
2019-01-28T23:50:55.128Z,6.27
2019-01-28T23:53:23.699Z,7.80
2019-01-28T23:55:52.239Z,6.63
2019-01-28T23:58:21.090Z,7.03
